sensor_id;sensor_type;location;lat;lon;timestamp;pressure;altitude;pressure_sealevel;temperature
47484;BMP280;54076;50.322;18.650;2022-12-10T00:02:38;97790.42;;;3.24
47484;BMP280;54076;50.322;18.650;2022-12-10T00:07:39;97781.70;;;3.15
47484;BMP280;54076;50.322;18.650;2022-12-10T00:12:40;97784.23;;;3.26
47484;BMP280;54076;50.322;18.650;2022-12-10T00:17:41;97787.38;;;3.28
47484;BMP280;54076;50.322;18.650;2022-12-10T00:22:42;97798.94;;;3.24
47484;BMP280;54076;50.322;18.650;2022-12-10T00:27:43;97791.88;;;3.28
47484;BMP280;54076;50.322;18.650;2022-12-10T00:32:44;97787.39;;;3.16
47484;BMP280;54076;50.322;18.650;2022-12-10T00:37:45;97777.73;;;3.27
47484;BMP280;54076;50.322;18.650;2022-12-10T00:42:46;97793.27;;;3.19
47484;BMP280;54076;50.322;18.650;2022-12-10T00:47:47;97796.86;;;3.16
47484;BMP280;54076;50.322;18.650;2022-12-10T00:52:48;97800.91;;;3.21
47484;BMP280;54076;50.322;18.650;2022-12-10T00:57:49;97808.41;;;3.26
47484;BMP280;54076;50.322;18.650;2022-12-10T01:02:50;97806.02;;;3.20
47484;BMP280;54076;50.322;18.650;2022-12-10T01:07:51;97813.38;;;3.08
47484;BMP280;54076;50.322;18.650;2022-12-10T01:12:54;97812.98;;;3.02
47484;BMP280;54076;50.322;18.650;2022-12-10T01:17:55;97811.89;;;2.94
47484;BMP280;54076;50.322;18.650;2022-12-10T01:22:56;97811.47;;;3.06
47484;BMP280;54076;50.322;18.650;2022-12-10T01:27:57;97816.89;;;3.17
47484;BMP280;54076;50.322;18.650;2022-12-10T01:32:58;97814.23;;;3.19
47484;BMP280;54076;50.322;18.650;2022-12-10T01:37:59;97825.61;;;3.20
47484;BMP280;54076;50.322;18.650;2022-12-10T01:42:59;97818.77;;;3.24
47484;BMP280;54076;50.322;18.650;2022-12-10T01:48:00;97829.77;;;3.35
47484;BMP280;54076;50.322;18.650;2022-12-10T01:53:02;97824.04;;;3.39
47484;BMP280;54076;50.322;18.650;2022-12-10T01:58:03;97820.85;;;3.42
47484;BMP280;54076;50.322;18.650;2022-12-10T02:03:13;97820.77;;;3.29
47484;BMP280;54076;50.322;18.650;2022-12-10T02:08:40;97842.20;;;3.18
47484;BMP280;54076;50.322;18.650;2022-12-10T02:14:13;97845.95;;;3.20
47484;BMP280;54076;50.322;18.650;2022-12-10T02:19:50;97866.23;;;3.07
47484;BMP280;54076;50.322;18.650;2022-12-10T02:24:54;97860.73;;;3.18
47484;BMP280;54076;50.322;18.650;2022-12-10T02:29:57;97851.80;;;3.12
47484;BMP280;54076;50.322;18.650;2022-12-10T02:35:04;97849.16;;;3.29
47484;BMP280;54076;50.322;18.650;2022-12-10T02:40:15;97845.51;;;3.18
47484;BMP280;54076;50.322;18.650;2022-12-10T02:45:20;97843.57;;;3.37
47484;BMP280;54076;50.322;18.650;2022-12-10T02:50:23;97837.55;;;3.43
47484;BMP280;54076;50.322;18.650;2022-12-10T02:55:24;97831.97;;;3.37
47484;BMP280;54076;50.322;18.650;2022-12-10T03:00:26;97834.02;;;3.51
47484;BMP280;54076;50.322;18.650;2022-12-10T03:05:55;97842.11;;;3.33
47484;BMP280;54076;50.322;18.650;2022-12-10T03:11:16;97863.70;;;3.37
47484;BMP280;54076;50.322;18.650;2022-12-10T03:16:18;97869.14;;;3.29
47484;BMP280;54076;50.322;18.650;2022-12-10T03:21:21;97872.18;;;3.28
47484;BMP280;54076;50.322;18.650;2022-12-10T03:26:23;97866.48;;;3.16
47484;BMP280;54076;50.322;18.650;2022-12-10T03:31:26;97863.60;;;3.30
47484;BMP280;54076;50.322;18.650;2022-12-10T03:36:28;97874.68;;;3.37
47484;BMP280;54076;50.322;18.650;2022-12-10T03:41:30;97892.45;;;3.14
47484;BMP280;54076;50.322;18.650;2022-12-10T03:46:31;97891.91;;;3.15
47484;BMP280;54076;50.322;18.650;2022-12-10T03:51:32;97899.42;;;2.96
47484;BMP280;54076;50.322;18.650;2022-12-10T03:56:33;97891.19;;;3.08
47484;BMP280;54076;50.322;18.650;2022-12-10T04:01:34;97891.38;;;3.15
47484;BMP280;54076;50.322;18.650;2022-12-10T04:06:38;97894.92;;;3.07
47484;BMP280;54076;50.322;18.650;2022-12-10T04:11:40;97897.08;;;3.10
47484;BMP280;54076;50.322;18.650;2022-12-10T04:16:41;97900.54;;;3.14
47484;BMP280;54076;50.322;18.650;2022-12-10T04:21:44;97894.02;;;3.20
47484;BMP280;54076;50.322;18.650;2022-12-10T04:27:27;97908.40;;;3.29
47484;BMP280;54076;50.322;18.650;2022-12-10T04:32:29;97911.45;;;3.05
47484;BMP280;54076;50.322;18.650;2022-12-10T04:37:30;97917.17;;;3.37
47484;BMP280;54076;50.322;18.650;2022-12-10T04:42:32;97931.84;;;3.08
47484;BMP280;54076;50.322;18.650;2022-12-10T04:47:33;97941.43;;;3.37
47484;BMP280;54076;50.322;18.650;2022-12-10T04:52:34;97947.05;;;3.21
47484;BMP280;54076;50.322;18.650;2022-12-10T04:57:34;97952.35;;;3.13
47484;BMP280;54076;50.322;18.650;2022-12-10T05:02:35;97955.75;;;3.15
47484;BMP280;54076;50.322;18.650;2022-12-10T05:07:36;97950.70;;;3.08
47484;BMP280;54076;50.322;18.650;2022-12-10T05:12:37;97955.81;;;3.05
47484;BMP280;54076;50.322;18.650;2022-12-10T05:17:38;97953.52;;;3.09
47484;BMP280;54076;50.322;18.650;2022-12-10T05:22:39;97958.08;;;3.19
47484;BMP280;54076;50.322;18.650;2022-12-10T05:27:59;97966.20;;;3.28
47484;BMP280;54076;50.322;18.650;2022-12-10T05:33:00;97963.95;;;3.21
47484;BMP280;54076;50.322;18.650;2022-12-10T05:38:01;97954.63;;;3.19
47484;BMP280;54076;50.322;18.650;2022-12-10T05:43:02;97958.54;;;3.26
47484;BMP280;54076;50.322;18.650;2022-12-10T05:48:03;97967.52;;;3.32
47484;BMP280;54076;50.322;18.650;2022-12-10T05:53:05;97966.66;;;3.02
47484;BMP280;54076;50.322;18.650;2022-12-10T05:58:06;97956.05;;;3.20
47484;BMP280;54076;50.322;18.650;2022-12-10T06:03:07;97942.71;;;3.35
47484;BMP280;54076;50.322;18.650;2022-12-10T06:08:08;97920.91;;;3.46
47484;BMP280;54076;50.322;18.650;2022-12-10T06:13:09;97918.64;;;3.36
47484;BMP280;54076;50.322;18.650;2022-12-10T06:18:10;97925.77;;;3.30
47484;BMP280;54076;50.322;18.650;2022-12-10T06:23:11;97944.77;;;3.06
47484;BMP280;54076;50.322;18.650;2022-12-10T06:28:12;97969.84;;;3.08
47484;BMP280;54076;50.322;18.650;2022-12-10T06:33:13;97988.36;;;3.00
47484;BMP280;54076;50.322;18.650;2022-12-10T06:38:14;97996.70;;;2.83
47484;BMP280;54076;50.322;18.650;2022-12-10T06:43:15;97999.73;;;2.89
47484;BMP280;54076;50.322;18.650;2022-12-10T06:48:16;97995.51;;;3.19
47484;BMP280;54076;50.322;18.650;2022-12-10T06:53:18;98007.86;;;3.22
47484;BMP280;54076;50.322;18.650;2022-12-10T06:58:19;98013.45;;;3.09
47484;BMP280;54076;50.322;18.650;2022-12-10T07:03:20;98021.47;;;3.16
47484;BMP280;54076;50.322;18.650;2022-12-10T07:08:21;98025.59;;;3.36
47484;BMP280;54076;50.322;18.650;2022-12-10T07:13:24;98020.96;;;3.06
47484;BMP280;54076;50.322;18.650;2022-12-10T07:18:26;98003.29;;;3.37
47484;BMP280;54076;50.322;18.650;2022-12-10T07:23:27;98014.74;;;3.28
47484;BMP280;54076;50.322;18.650;2022-12-10T07:28:28;98022.02;;;3.18
47484;BMP280;54076;50.322;18.650;2022-12-10T07:33:29;98025.10;;;3.19
47484;BMP280;54076;50.322;18.650;2022-12-10T07:38:30;98030.58;;;3.36
47484;BMP280;54076;50.322;18.650;2022-12-10T07:43:40;98049.50;;;3.38
47484;BMP280;54076;50.322;18.650;2022-12-10T07:48:43;98057.02;;;3.42
47484;BMP280;54076;50.322;18.650;2022-12-10T07:53:44;98059.92;;;3.78
47484;BMP280;54076;50.322;18.650;2022-12-10T07:58:45;98056.17;;;3.51
47484;BMP280;54076;50.322;18.650;2022-12-10T08:03:46;98051.76;;;3.64
47484;BMP280;54076;50.322;18.650;2022-12-10T08:08:48;98055.92;;;3.41
47484;BMP280;54076;50.322;18.650;2022-12-10T08:13:50;98048.27;;;3.45
47484;BMP280;54076;50.322;18.650;2022-12-10T08:18:53;98042.56;;;3.60
47484;BMP280;54076;50.322;18.650;2022-12-10T08:23:55;98035.30;;;3.23
47484;BMP280;54076;50.322;18.650;2022-12-10T08:28:57;98034.55;;;3.27
47484;BMP280;54076;50.322;18.650;2022-12-10T08:33:58;98036.95;;;3.32
47484;BMP280;54076;50.322;18.650;2022-12-10T08:38:59;98042.80;;;3.50
47484;BMP280;54076;50.322;18.650;2022-12-10T08:44:00;98046.46;;;3.26
47484;BMP280;54076;50.322;18.650;2022-12-10T08:49:02;98052.45;;;3.41
47484;BMP280;54076;50.322;18.650;2022-12-10T08:54:04;98054.66;;;3.63
47484;BMP280;54076;50.322;18.650;2022-12-10T08:59:06;98055.41;;;3.62
47484;BMP280;54076;50.322;18.650;2022-12-10T09:04:07;98050.02;;;3.65
47484;BMP280;54076;50.322;18.650;2022-12-10T09:09:08;98054.08;;;3.59
47484;BMP280;54076;50.322;18.650;2022-12-10T09:14:09;98055.48;;;3.65
47484;BMP280;54076;50.322;18.650;2022-12-10T09:19:10;98051.35;;;3.50
47484;BMP280;54076;50.322;18.650;2022-12-10T09:24:11;98043.27;;;3.34
47484;BMP280;54076;50.322;18.650;2022-12-10T09:29:13;98039.70;;;3.28
47484;BMP280;54076;50.322;18.650;2022-12-10T09:34:13;98039.52;;;3.32
47484;BMP280;54076;50.322;18.650;2022-12-10T09:39:14;98036.48;;;3.48
47484;BMP280;54076;50.322;18.650;2022-12-10T09:44:35;98026.65;;;3.44
47484;BMP280;54076;50.322;18.650;2022-12-10T09:54:57;98020.06;;;3.24
47484;BMP280;54076;50.322;18.650;2022-12-10T10:00:25;98012.55;;;3.38
47484;BMP280;54076;50.322;18.650;2022-12-10T10:05:41;98021.33;;;3.41
47484;BMP280;54076;50.322;18.650;2022-12-10T10:10:44;98014.29;;;3.13
47484;BMP280;54076;50.322;18.650;2022-12-10T10:15:45;98010.56;;;3.07
47484;BMP280;54076;50.322;18.650;2022-12-10T10:20:47;98026.99;;;3.09
47484;BMP280;54076;50.322;18.650;2022-12-10T10:25:49;98035.58;;;3.21
47484;BMP280;54076;50.322;18.650;2022-12-10T10:30:52;98035.38;;;3.31
47484;BMP280;54076;50.322;18.650;2022-12-10T10:35:56;98029.23;;;3.35
47484;BMP280;54076;50.322;18.650;2022-12-10T10:41:02;98033.77;;;3.23
47484;BMP280;54076;50.322;18.650;2022-12-10T10:56:24;98026.48;;;3.19
47484;BMP280;54076;50.322;18.650;2022-12-10T11:01:43;98029.84;;;3.24
47484;BMP280;54076;50.322;18.650;2022-12-10T11:06:45;98027.89;;;3.21
47484;BMP280;54076;50.322;18.650;2022-12-10T11:11:52;98031.56;;;3.38
47484;BMP280;54076;50.322;18.650;2022-12-10T11:17:23;98022.42;;;3.55
47484;BMP280;54076;50.322;18.650;2022-12-10T11:22:26;98019.29;;;3.44
47484;BMP280;54076;50.322;18.650;2022-12-10T11:38:36;98027.46;;;3.61
47484;BMP280;54076;50.322;18.650;2022-12-10T12:01:38;98001.02;;;3.63
47484;BMP280;54076;50.322;18.650;2022-12-10T12:12:27;98030.71;;;3.66
47484;BMP280;54076;50.322;18.650;2022-12-10T12:17:41;98016.33;;;3.47
47484;BMP280;54076;50.322;18.650;2022-12-10T12:22:50;98010.27;;;3.73
47484;BMP280;54076;50.322;18.650;2022-12-10T12:28:20;98015.36;;;3.58
47484;BMP280;54076;50.322;18.650;2022-12-10T12:33:40;98010.96;;;3.64
47484;BMP280;54076;50.322;18.650;2022-12-10T12:44:45;98016.73;;;3.59
47484;BMP280;54076;50.322;18.650;2022-12-10T12:49:41;98018.30;;;3.60
47484;BMP280;54076;50.322;18.650;2022-12-10T12:54:42;98007.67;;;3.52
47484;BMP280;54076;50.322;18.650;2022-12-10T13:04:52;98012.94;;;3.47
47484;BMP280;54076;50.322;18.650;2022-12-10T13:15:21;98021.04;;;3.44
47484;BMP280;54076;50.322;18.650;2022-12-10T13:26:29;98012.61;;;3.44
47484;BMP280;54076;50.322;18.650;2022-12-10T13:31:42;98027.52;;;3.48
47484;BMP280;54076;50.322;18.650;2022-12-10T13:47:44;98034.35;;;3.35
47484;BMP280;54076;50.322;18.650;2022-12-10T14:09:49;98058.37;;;3.43
47484;BMP280;54076;50.322;18.650;2022-12-10T14:15:20;98056.86;;;3.34
47484;BMP280;54076;50.322;18.650;2022-12-10T14:20:24;98056.29;;;3.12
47484;BMP280;54076;50.322;18.650;2022-12-10T14:25:27;98059.98;;;3.19
47484;BMP280;54076;50.322;18.650;2022-12-10T14:30:28;98062.60;;;3.43
47484;BMP280;54076;50.322;18.650;2022-12-10T14:35:29;98061.56;;;3.44
47484;BMP280;54076;50.322;18.650;2022-12-10T14:40:41;98057.27;;;3.42
47484;BMP280;54076;50.322;18.650;2022-12-10T14:45:49;98058.84;;;3.28
47484;BMP280;54076;50.322;18.650;2022-12-10T14:51:03;98066.04;;;3.20
47484;BMP280;54076;50.322;18.650;2022-12-10T14:56:18;98073.17;;;3.15
47484;BMP280;54076;50.322;18.650;2022-12-10T15:01:40;98075.00;;;3.28
47484;BMP280;54076;50.322;18.650;2022-12-10T15:06:41;98068.33;;;3.31
47484;BMP280;54076;50.322;18.650;2022-12-10T15:11:43;98069.66;;;3.25
47484;BMP280;54076;50.322;18.650;2022-12-10T15:16:46;98084.04;;;3.19
47484;BMP280;54076;50.322;18.650;2022-12-10T15:21:49;98080.47;;;3.22
47484;BMP280;54076;50.322;18.650;2022-12-10T15:26:50;98074.17;;;3.18
47484;BMP280;54076;50.322;18.650;2022-12-10T15:32:08;98064.60;;;3.31
47484;BMP280;54076;50.322;18.650;2022-12-10T15:37:45;98069.23;;;3.40
47484;BMP280;54076;50.322;18.650;2022-12-10T15:48:29;98063.67;;;3.15
47484;BMP280;54076;50.322;18.650;2022-12-10T15:53:37;98060.86;;;3.08
47484;BMP280;54076;50.322;18.650;2022-12-10T15:58:40;98066.48;;;2.96
47484;BMP280;54076;50.322;18.650;2022-12-10T16:03:41;98071.05;;;2.92
47484;BMP280;54076;50.322;18.650;2022-12-10T16:08:42;98073.86;;;3.12
47484;BMP280;54076;50.322;18.650;2022-12-10T16:13:49;98067.21;;;3.21
47484;BMP280;54076;50.322;18.650;2022-12-10T16:18:51;98065.80;;;3.15
47484;BMP280;54076;50.322;18.650;2022-12-10T16:23:53;98067.28;;;3.03
47484;BMP280;54076;50.322;18.650;2022-12-10T16:28:54;98064.43;;;3.12
47484;BMP280;54076;50.322;18.650;2022-12-10T16:33:55;98067.69;;;3.11
47484;BMP280;54076;50.322;18.650;2022-12-10T16:38:57;98059.77;;;3.20
47484;BMP280;54076;50.322;18.650;2022-12-10T16:43:58;98051.48;;;3.21
47484;BMP280;54076;50.322;18.650;2022-12-10T16:48:59;98055.97;;;3.31
47484;BMP280;54076;50.322;18.650;2022-12-10T16:54:00;98055.15;;;3.11
47484;BMP280;54076;50.322;18.650;2022-12-10T16:59:01;98044.83;;;3.17
47484;BMP280;54076;50.322;18.650;2022-12-10T17:04:02;98043.67;;;3.20
47484;BMP280;54076;50.322;18.650;2022-12-10T17:09:04;98042.45;;;3.18
47484;BMP280;54076;50.322;18.650;2022-12-10T17:14:13;98044.52;;;3.10
47484;BMP280;54076;50.322;18.650;2022-12-10T17:19:15;98045.20;;;3.21
47484;BMP280;54076;50.322;18.650;2022-12-10T17:24:17;98049.77;;;3.02
47484;BMP280;54076;50.322;18.650;2022-12-10T17:29:28;98052.41;;;3.09
47484;BMP280;54076;50.322;18.650;2022-12-10T17:34:30;98062.57;;;3.08
47484;BMP280;54076;50.322;18.650;2022-12-10T17:39:31;98069.67;;;3.09
47484;BMP280;54076;50.322;18.650;2022-12-10T17:44:32;98077.38;;;3.13
47484;BMP280;54076;50.322;18.650;2022-12-10T17:49:33;98075.64;;;3.02
47484;BMP280;54076;50.322;18.650;2022-12-10T17:54:35;98064.28;;;2.90
47484;BMP280;54076;50.322;18.650;2022-12-10T17:59:36;98057.34;;;2.76
47484;BMP280;54076;50.322;18.650;2022-12-10T18:04:38;98057.64;;;2.90
47484;BMP280;54076;50.322;18.650;2022-12-10T18:09:40;98059.27;;;3.00
47484;BMP280;54076;50.322;18.650;2022-12-10T18:14:41;98057.55;;;2.87
47484;BMP280;54076;50.322;18.650;2022-12-10T18:19:43;98048.70;;;2.89
47484;BMP280;54076;50.322;18.650;2022-12-10T18:24:44;98056.28;;;2.95
47484;BMP280;54076;50.322;18.650;2022-12-10T18:29:45;98054.73;;;2.88
47484;BMP280;54076;50.322;18.650;2022-12-10T18:34:46;98056.05;;;2.80
47484;BMP280;54076;50.322;18.650;2022-12-10T18:39:47;98055.77;;;2.95
47484;BMP280;54076;50.322;18.650;2022-12-10T18:44:49;98054.66;;;2.88
47484;BMP280;54076;50.322;18.650;2022-12-10T18:49:50;98052.95;;;2.86
47484;BMP280;54076;50.322;18.650;2022-12-10T18:54:51;98052.36;;;2.81
47484;BMP280;54076;50.322;18.650;2022-12-10T18:59:52;98050.98;;;2.81
47484;BMP280;54076;50.322;18.650;2022-12-10T19:04:53;98046.99;;;2.81
47484;BMP280;54076;50.322;18.650;2022-12-10T19:09:54;98046.50;;;2.70
47484;BMP280;54076;50.322;18.650;2022-12-10T19:14:55;98048.05;;;2.76
47484;BMP280;54076;50.322;18.650;2022-12-10T19:19:56;98047.52;;;2.81
47484;BMP280;54076;50.322;18.650;2022-12-10T19:24:57;98048.11;;;2.75
47484;BMP280;54076;50.322;18.650;2022-12-10T19:29:58;98047.43;;;2.54
47484;BMP280;54076;50.322;18.650;2022-12-10T19:34:59;98049.23;;;2.91
47484;BMP280;54076;50.322;18.650;2022-12-10T19:40:00;98054.31;;;2.73
47484;BMP280;54076;50.322;18.650;2022-12-10T19:45:01;98057.30;;;2.86
47484;BMP280;54076;50.322;18.650;2022-12-10T19:50:03;98049.17;;;2.71
47484;BMP280;54076;50.322;18.650;2022-12-10T19:55:04;98059.27;;;2.76
47484;BMP280;54076;50.322;18.650;2022-12-10T20:00:10;98053.38;;;2.63
47484;BMP280;54076;50.322;18.650;2022-12-10T20:05:13;98047.95;;;2.80
47484;BMP280;54076;50.322;18.650;2022-12-10T20:10:22;98041.77;;;2.79
47484;BMP280;54076;50.322;18.650;2022-12-10T20:15:24;98037.29;;;2.77
47484;BMP280;54076;50.322;18.650;2022-12-10T20:20:28;98035.59;;;2.83
47484;BMP280;54076;50.322;18.650;2022-12-10T20:25:29;98027.09;;;2.82
47484;BMP280;54076;50.322;18.650;2022-12-10T20:30:30;98023.19;;;2.82
47484;BMP280;54076;50.322;18.650;2022-12-10T20:35:31;98023.45;;;2.78
47484;BMP280;54076;50.322;18.650;2022-12-10T20:40:32;98022.80;;;2.72
47484;BMP280;54076;50.322;18.650;2022-12-10T20:45:33;98027.84;;;2.67
47484;BMP280;54076;50.322;18.650;2022-12-10T20:50:34;98020.58;;;2.69
47484;BMP280;54076;50.322;18.650;2022-12-10T20:55:35;98024.20;;;2.70
47484;BMP280;54076;50.322;18.650;2022-12-10T21:00:37;98026.80;;;2.70
47484;BMP280;54076;50.322;18.650;2022-12-10T21:05:38;98016.58;;;2.53
47484;BMP280;54076;50.322;18.650;2022-12-10T21:10:39;98016.14;;;2.66
47484;BMP280;54076;50.322;18.650;2022-12-10T21:15:58;98010.23;;;2.67
47484;BMP280;54076;50.322;18.650;2022-12-10T21:20:59;98013.73;;;2.69
47484;BMP280;54076;50.322;18.650;2022-12-10T21:26:00;98007.86;;;2.49
47484;BMP280;54076;50.322;18.650;2022-12-10T21:31:01;98006.75;;;2.44
47484;BMP280;54076;50.322;18.650;2022-12-10T21:36:02;98010.13;;;2.42
47484;BMP280;54076;50.322;18.650;2022-12-10T21:41:08;98016.98;;;2.44
47484;BMP280;54076;50.322;18.650;2022-12-10T21:46:29;98020.48;;;2.51
47484;BMP280;54076;50.322;18.650;2022-12-10T21:51:31;98019.04;;;2.51
47484;BMP280;54076;50.322;18.650;2022-12-10T21:56:32;98007.41;;;2.50
47484;BMP280;54076;50.322;18.650;2022-12-10T22:01:33;98004.00;;;2.50
47484;BMP280;54076;50.322;18.650;2022-12-10T22:06:34;98005.38;;;2.54
47484;BMP280;54076;50.322;18.650;2022-12-10T22:11:35;98007.45;;;2.62
47484;BMP280;54076;50.322;18.650;2022-12-10T22:16:36;98000.20;;;2.65
47484;BMP280;54076;50.322;18.650;2022-12-10T22:21:37;97999.15;;;2.57
47484;BMP280;54076;50.322;18.650;2022-12-10T22:26:38;97998.79;;;2.46
47484;BMP280;54076;50.322;18.650;2022-12-10T22:31:39;97994.17;;;2.66
47484;BMP280;54076;50.322;18.650;2022-12-10T22:36:40;97995.48;;;2.68
47484;BMP280;54076;50.322;18.650;2022-12-10T22:41:42;97996.86;;;2.61
47484;BMP280;54076;50.322;18.650;2022-12-10T22:46:43;97990.27;;;2.63
47484;BMP280;54076;50.322;18.650;2022-12-10T22:51:45;97985.69;;;2.48
47484;BMP280;54076;50.322;18.650;2022-12-10T22:56:45;97984.15;;;2.58
47484;BMP280;54076;50.322;18.650;2022-12-10T23:01:46;97980.87;;;2.63
47484;BMP280;54076;50.322;18.650;2022-12-10T23:06:48;97983.77;;;2.59
47484;BMP280;54076;50.322;18.650;2022-12-10T23:11:49;97987.27;;;2.53
47484;BMP280;54076;50.322;18.650;2022-12-10T23:17:09;97983.61;;;2.49
47484;BMP280;54076;50.322;18.650;2022-12-10T23:22:10;97972.30;;;2.67
47484;BMP280;54076;50.322;18.650;2022-12-10T23:27:11;97974.86;;;2.70
47484;BMP280;54076;50.322;18.650;2022-12-10T23:32:12;97963.71;;;2.58
47484;BMP280;54076;50.322;18.650;2022-12-10T23:37:13;97965.29;;;2.53
47484;BMP280;54076;50.322;18.650;2022-12-10T23:42:15;97956.91;;;2.57
47484;BMP280;54076;50.322;18.650;2022-12-10T23:47:16;97951.20;;;2.40
47484;BMP280;54076;50.322;18.650;2022-12-10T23:52:17;97951.11;;;2.53
47484;BMP280;54076;50.322;18.650;2022-12-10T23:57:18;97950.02;;;2.52
